Time;durP1;ratioP1;P1;durP2;ratioP2;P2;SDS_P1;SDS_P2;PMS_P1;PMS_P2;Temp;Humidity;BMP_temperature;BMP_pressure;BME280_temperature;BME280_humidity;BME280_pressure;Samples;Min_cycle;Max_cycle;Signal;HPM_P1;HPM_P2
2022/06/16 00:00:37;;;;;;;0.40;0.40;;;;;;;11.82;85.93;98828.75;4768692;30;20056;-85
2022/06/16 00:03:07;;;;;;;0.40;0.40;;;;;;;11.84;85.35;98823.94;4769720;30;20516;-85
2022/06/16 00:05:36;;;;;;;0.40;0.40;;;;;;;11.88;85.44;98825.91;4770467;30;20424;-87
2022/06/16 00:08:05;;;;;;;0.38;0.38;;;;;;;11.91;85.19;98825.38;4768730;30;20512;-85
2022/06/16 00:10:33;;;;;;;0.40;0.40;;;;;;;11.95;84.81;98828.41;4769820;30;20064;-86
2022/06/16 00:13:01;;;;;;;0.30;0.30;;;;;;;11.97;84.77;98828.13;4755079;30;20055;-86
2022/06/16 00:15:29;;;;;;;0.40;0.40;;;;;;;12.01;84.42;98832.75;4770043;30;20091;-85
2022/06/16 00:17:57;;;;;;;0.40;0.40;;;;;;;12.02;84.50;98837.09;4771827;30;20060;-85
2022/06/16 00:20:25;;;;;;;0.40;0.40;;;;;;;12.03;84.46;98838.72;4783830;30;20165;-85
2022/06/16 00:22:55;;;;;;;0.40;0.40;;;;;;;12.04;84.42;98829.53;4769155;30;20056;-85
2022/06/16 00:25:23;;;;;;;0.40;0.40;;;;;;;12.05;84.36;98828.47;4769160;30;20083;-85
2022/06/16 00:27:51;;;;;;;0.40;0.40;;;;;;;12.08;83.93;98827.16;4773804;30;20060;-85
2022/06/16 00:30:18;;;;;;;0.30;0.30;;;;;;;12.07;83.82;98829.00;4783466;30;20052;-82
2022/06/16 00:32:46;;;;;;;0.40;0.40;;;;;;;12.05;83.69;98828.47;4771281;30;20059;-84
2022/06/16 00:35:14;;;;;;;0.40;0.40;;;;;;;12.06;83.74;98823.88;4775278;30;20058;-87
2022/06/16 00:37:41;;;;;;;0.40;0.40;;;;;;;12.08;83.60;98832.56;4775126;30;20125;-86
2022/06/16 00:40:09;;;;;;;0.40;0.40;;;;;;;12.06;83.83;98832.00;4772375;30;20071;-90
2022/06/16 00:42:37;;;;;;;0.40;0.40;;;;;;;11.98;83.99;98836.00;4770546;30;20071;-88
2022/06/16 00:45:42;;;;;;;0.40;0.40;;;;;;;11.85;84.48;98831.78;4771235;30;20120;-86
2022/06/16 00:48:10;;;;;;;0.40;0.40;;;;;;;11.70;84.84;98832.47;4770087;30;20052;-87
2022/06/16 00:50:39;;;;;;;0.40;0.40;;;;;;;11.62;85.39;98842.91;4768674;30;20059;-87
2022/06/16 00:53:06;;;;;;;0.40;0.40;;;;;;;11.58;85.74;98833.69;4764932;30;20048;-87
2022/06/16 00:55:34;;;;;;;0.40;0.40;;;;;;;11.53;85.98;98839.84;4772196;30;20069;-86
2022/06/16 00:58:01;;;;;;;0.40;0.40;;;;;;;11.46;86.12;98840.03;4772049;30;20608;-83
2022/06/16 01:02:56;;;;;;;0.40;0.40;;;;;;;11.40;86.58;98843.78;4771426;30;20064;-85
2022/06/16 01:05:23;;;;;;;0.40;0.40;;;;;;;11.35;86.58;98840.22;4771687;30;20109;-86
2022/06/16 01:07:51;;;;;;;0.40;0.40;;;;;;;11.35;86.88;98843.72;4771649;30;20079;-87
2022/06/16 01:10:18;;;;;;;0.40;0.40;;;;;;;11.31;86.78;98842.59;4756364;30;20066;-87
2022/06/16 01:15:51;;;;;;;0.40;0.40;;;;;;;11.28;86.94;98843.91;4773522;30;20062;-89
2022/06/16 01:18:31;;;;;;;0.40;0.40;;;;;;;11.24;87.26;98841.97;4783111;30;20420;-90
2022/06/16 01:21:16;;;;;;;0.40;0.40;;;;;;;11.19;87.24;98850.84;4786166;30;20056;-89
2022/06/16 01:23:47;;;;;;;0.40;0.40;;;;;;;11.18;87.54;98857.28;4786800;30;20139;-87
2022/06/16 01:26:21;;;;;;;0.40;0.40;;;;;;;11.18;87.42;98854.59;4786834;30;20051;-88
2022/06/16 01:29:09;;;;;;;0.40;0.40;;;;;;;11.14;87.54;98853.47;4788001;30;20097;-87
2022/06/16 01:31:42;;;;;;;0.40;0.40;;;;;;;11.12;87.69;98861.00;4769762;30;20091;-88
2022/06/16 01:34:26;;;;;;;0.40;0.40;;;;;;;11.12;87.82;98863.72;4778569;24;20490;-87
2022/06/16 01:37:04;;;;;;;0.40;0.40;;;;;;;11.12;87.76;98863.72;4757717;30;20126;-86
2022/06/16 01:39:41;;;;;;;0.50;0.50;;;;;;;11.12;87.70;98865.59;4772680;30;20116;-88
2022/06/16 01:42:28;;;;;;;0.40;0.40;;;;;;;11.15;87.52;98867.81;4742386;30;20105;-88
2022/06/16 01:45:18;;;;;;;0.40;0.40;;;;;;;11.18;87.09;98865.41;4752965;30;20084;-88
2022/06/16 01:47:49;;;;;;;0.40;0.40;;;;;;;11.20;86.94;98873.25;4754553;30;20056;-88
2022/06/16 01:50:23;;;;;;;0.40;0.40;;;;;;;11.26;86.83;98874.94;4770328;30;20079;-89
2022/06/16 01:53:02;;;;;;;0.40;0.40;;;;;;;11.31;86.43;98882.31;4770593;30;20052;-87
2022/06/16 01:55:39;;;;;;;0.40;0.40;;;;;;;11.39;85.93;98884.53;4770699;30;20121;-87
2022/06/16 01:58:11;;;;;;;0.40;0.40;;;;;;;11.42;85.29;98884.88;4739231;30;20052;-87
2022/06/16 02:00:39;;;;;;;0.40;0.40;;;;;;;11.44;84.90;98887.31;4753391;30;20428;-86
2022/06/16 02:03:10;;;;;;;0.40;0.40;;;;;;;11.41;85.02;98885.94;4764835;30;20052;-87
2022/06/16 02:05:55;;;;;;;0.40;0.40;;;;;;;11.41;84.66;98890.53;4761611;30;20056;-88
2022/06/16 02:08:44;;;;;;;0.40;0.40;;;;;;;11.41;84.79;98890.53;4755759;30;20051;-89
2022/06/16 02:11:21;;;;;;;0.40;0.40;;;;;;;11.37;84.80;98887.53;4783554;30;20471;-88
2022/06/16 02:14:11;;;;;;;0.40;0.40;;;;;;;11.40;84.58;98891.59;4769174;30;20059;-89
2022/06/16 02:16:40;;;;;;;0.40;0.40;;;;;;;11.36;84.41;98885.06;4767441;30;20535;-88
2022/06/16 02:19:11;;;;;;;0.40;0.40;;;;;;;11.35;84.35;98888.84;4755262;30;20052;-87
2022/06/16 02:21:40;;;;;;;0.40;0.40;;;;;;;11.37;84.32;98898.31;4755505;30;20108;-88
2022/06/16 02:24:13;;;;;;;0.40;0.40;;;;;;;11.41;84.06;98899.44;4770163;30;20409;-86
2022/06/16 02:26:40;;;;;;;0.40;0.40;;;;;;;11.47;83.87;98894.94;4756024;30;20059;-86
2022/06/16 02:29:29;;;;;;;0.40;0.40;;;;;;;11.69;82.86;98898.41;4785622;30;20056;-87
2022/06/16 02:32:18;;;;;;;0.50;0.50;;;;;;;11.90;81.60;98904.88;4770576;30;20059;-86
2022/06/16 02:35:23;;;;;;;0.40;0.40;;;;;;;12.02;81.12;98910.13;4771459;30;20581;-85
2022/06/16 02:38:13;;;;;;;0.40;0.40;;;;;;;12.08;80.57;98909.09;4785315;30;20543;-87
2022/06/16 02:40:46;;;;;;;0.40;0.40;;;;;;;12.11;80.23;98910.47;4768528;30;20112;-87
2022/06/16 02:43:24;;;;;;;0.40;0.40;;;;;;;12.17;79.73;98916.75;4768339;30;20051;-85
2022/06/16 02:46:09;;;;;;;0.40;0.40;;;;;;;12.25;79.47;98924.38;4769744;30;20063;-86
2022/06/16 02:48:38;;;;;;;0.40;0.40;;;;;;;12.29;79.02;98907.38;4752160;30;20155;-83
2022/06/16 02:51:16;;;;;;;0.40;0.40;;;;;;;12.40;78.57;98915.59;4768676;30;20052;-86
2022/06/16 02:57:15;;;;;;;0.40;0.40;;;;;;;12.45;78.55;98912.91;4770528;30;20055;-89
2022/06/16 02:59:54;;;;;;;0.40;0.40;;;;;;;12.41;78.23;98920.75;4769991;30;20051;-89
2022/06/16 03:02:24;;;;;;;0.40;0.40;;;;;;;12.41;78.27;98918.03;4770083;30;20052;-89
2022/06/16 03:04:54;;;;;;;0.40;0.40;;;;;;;12.39;78.41;98922.09;4769464;30;20051;-90
2022/06/16 03:07:23;;;;;;;0.40;0.40;;;;;;;12.32;78.45;98917.69;4769487;30;20079;-90
2022/06/16 03:10:05;;;;;;;0.40;0.40;;;;;;;12.30;78.68;98914.41;4769532;30;20055;-90
2022/06/16 03:12:34;;;;;;;0.40;0.40;;;;;;;12.30;78.95;98927.13;4786810;30;20077;-89
2022/06/16 03:15:02;;;;;;;0.40;0.40;;;;;;;12.36;78.82;98920.72;4772024;30;20056;-91
2022/06/16 03:17:31;;;;;;;0.40;0.40;;;;;;;12.44;78.49;98922.94;4770698;30;20062;-90
2022/06/16 03:19:58;;;;;;;0.40;0.40;;;;;;;12.41;78.36;98923.47;4785490;30;20079;-92
2022/06/16 03:22:26;;;;;;;0.38;0.38;;;;;;;12.42;78.41;98924.28;4775466;30;20048;-88
2022/06/16 03:24:53;;;;;;;0.40;0.40;;;;;;;12.46;78.46;98914.56;4780737;29;20174;-86
2022/06/16 03:27:23;;;;;;;0.50;0.50;;;;;;;12.60;78.06;98917.63;4773523;30;20630;-86
2022/06/16 03:29:52;;;;;;;0.40;0.40;;;;;;;12.68;77.77;98923.38;4772216;30;20105;-88
2022/06/16 03:32:19;;;;;;;0.40;0.40;;;;;;;12.76;77.73;98925.63;4767642;30;20147;-85
2022/06/16 03:34:46;;;;;;;0.50;0.50;;;;;;;12.76;77.23;98924.78;4767682;30;20128;-86
2022/06/16 03:37:17;;;;;;;0.40;0.40;;;;;;;12.88;77.29;98927.31;4782210;30;20051;-86
2022/06/16 03:39:51;;;;;;;0.40;0.40;;;;;;;12.90;76.84;98927.84;4767543;30;20083;-84
2022/06/16 03:42:18;;;;;;;0.40;0.40;;;;;;;13.00;76.89;98922.50;4767488;30;20063;-88
2022/06/16 03:44:46;;;;;;;0.50;0.50;;;;;;;13.12;76.24;98927.72;4769125;30;20059;-86
2022/06/16 03:47:15;;;;;;;0.40;0.40;;;;;;;13.10;75.88;98917.13;4767779;30;20055;-85
2022/06/16 03:49:43;;;;;;;0.40;0.40;;;;;;;13.16;75.52;98923.38;4753680;30;20055;-85
2022/06/16 03:52:10;;;;;;;0.40;0.40;;;;;;;13.22;75.32;98927.78;4782973;30;20087;-87
2022/06/16 03:54:44;;;;;;;0.35;0.35;;;;;;;13.24;75.34;98925.59;4752873;30;20083;-88
2022/06/16 03:57:13;;;;;;;0.40;0.40;;;;;;;13.29;75.29;98930.25;4768035;30;20512;-87
2022/06/16 03:59:41;;;;;;;0.40;0.40;;;;;;;13.37;75.24;98941.44;4767971;30;20124;-87
2022/06/16 04:02:21;;;;;;;0.40;0.40;;;;;;;13.46;74.17;98938.19;4774064;30;20432;-89
2022/06/16 04:04:48;;;;;;;0.40;0.40;;;;;;;13.60;74.38;98932.03;4756932;30;20098;-88
2022/06/16 04:07:16;;;;;;;0.40;0.40;;;;;;;13.65;73.78;98934.75;4757513;30;20117;-87
2022/06/16 04:09:57;;;;;;;0.40;0.40;;;;;;;13.72;73.57;98925.53;4752837;30;20051;-90
2022/06/16 04:12:24;;;;;;;0.50;0.50;;;;;;;13.86;73.16;98943.75;4874562;24;20449;-85
2022/06/16 04:14:54;;;;;;;0.40;0.40;;;;;;;13.86;71.96;98938.31;4759172;30;20063;-86
2022/06/16 04:17:22;;;;;;;0.40;0.40;;;;;;;13.93;72.20;98942.69;4758911;30;20060;-86
2022/06/16 04:22:56;;;;;;;0.40;0.40;;;;;;;14.19;71.32;98935.41;4434219;29;10000097;-85
2022/06/16 04:25:31;;;;;;;0.40;0.40;;;;;;;14.25;70.71;98924.28;4756973;30;20520;-86
2022/06/16 04:28:09;;;;;;;0.40;0.40;;;;;;;14.41;70.68;98927.81;4747924;30;20063;-86
2022/06/16 04:30:43;;;;;;;;;;;;;;;14.48;69.96;98932.97;4767134;30;20055;-86
2022/06/16 04:33:13;;;;;;;0.40;0.40;;;;;;;14.53;70.18;98930.28;4752769;30;19929;-86
2022/06/16 04:35:42;;;;;;;0.40;0.40;;;;;;;14.64;69.50;98926.50;4769250;30;20059;-87
2022/06/16 04:38:12;;;;;;;0.40;0.40;;;;;;;14.62;69.25;98938.72;4770687;30;20123;-85
2022/06/16 04:40:42;;;;;;;0.50;0.50;;;;;;;14.65;68.91;98928.09;4786763;30;20051;-87
2022/06/16 04:43:15;;;;;;;0.40;0.40;;;;;;;14.79;68.69;98933.00;4760202;30;20047;-88
2022/06/16 04:45:51;;;;;;;0.40;0.40;;;;;;;14.87;68.27;98929.72;4767489;30;20052;-86
2022/06/16 04:48:22;;;;;;;0.40;0.40;;;;;;;15.04;68.23;98932.97;4773074;30;20079;-88
2022/06/16 04:50:49;;;;;;;0.40;0.40;;;;;;;15.10;67.69;98934.56;4777223;30;20169;-86
2022/06/16 04:53:20;;;;;;;0.40;0.40;;;;;;;15.14;67.61;98932.94;4755344;30;20507;-91
2022/06/16 04:56:13;;;;;;;0.40;0.40;;;;;;;15.31;66.79;98931.78;4769947;30;20638;-90
2022/06/16 04:58:57;;;;;;;0.40;0.40;;;;;;;15.28;66.59;98932.34;4745165;30;20202;-88
2022/06/16 05:01:48;;;;;;;0.40;0.40;;;;;;;15.30;65.92;98932.88;4724608;30;20091;-87
2022/06/16 05:04:48;;;;;;;0.40;0.40;;;;;;;15.47;65.72;98938.81;4716484;30;20548;-88
2022/06/16 05:07:29;;;;;;;0.40;0.40;;;;;;;15.66;65.72;98940.88;4718481;30;20542;-89
2022/06/16 05:10:18;;;;;;;0.40;0.40;;;;;;;15.80;64.90;98939.22;4722554;30;20895;-89
2022/06/16 05:13:06;;;;;;;0.40;0.40;;;;;;;15.83;64.69;98935.94;4728715;30;20603;-88
2022/06/16 05:16:03;;;;;;;0.40;0.40;;;;;;;15.72;64.58;98928.91;4747510;24;20048;-91
2022/06/16 05:18:59;;;;;;;0.40;0.40;;;;;;;15.79;64.12;98932.13;4752635;30;20051;-85
2022/06/16 05:21:43;;;;;;;0.40;0.40;;;;;;;15.96;63.39;98943.47;4778589;30;20059;-85
2022/06/16 05:24:47;;;;;;;0.40;0.40;;;;;;;16.06;63.49;98939.88;4749966;30;20056;-90
2022/06/16 05:27:32;;;;;;;0.40;0.40;;;;;;;16.27;63.39;98947.91;4749894;30;20095;-90
2022/06/16 05:30:04;;;;;;;0.30;0.30;;;;;;;16.26;63.65;98947.09;4754914;30;20115;-89
2022/06/16 05:33:00;;;;;;;0.40;0.40;;;;;;;16.33;63.63;98942.16;4739166;30;20438;-90
2022/06/16 05:36:08;;;;;;;0.40;0.40;;;;;;;16.53;63.46;98951.25;4831168;24;20124;-92
2022/06/16 05:38:58;;;;;;;0.30;0.30;;;;;;;16.70;62.73;98948.91;4743985;30;20075;-88
2022/06/16 05:41:33;;;;;;;0.40;0.40;;;;;;;16.76;61.99;98947.78;4778947;30;20068;-88
2022/06/16 05:44:07;;;;;;;0.40;0.40;;;;;;;16.68;62.14;98940.22;4736478;30;20056;-87
2022/06/16 05:46:57;;;;;;;0.35;0.35;;;;;;;16.68;61.75;98937.50;4726801;30;20060;-89
2022/06/16 05:49:28;;;;;;;0.40;0.40;;;;;;;16.90;61.53;98940.59;4747780;30;20076;-87
2022/06/16 05:52:03;;;;;;;0.40;0.40;;;;;;;17.06;60.88;98951.34;4731753;30;20140;-88
2022/06/16 05:54:34;;;;;;;0.40;0.40;;;;;;;17.15;60.76;98941.44;4755159;30;20087;-87
2022/06/16 05:57:01;;;;;;;0.40;0.40;;;;;;;17.25;60.29;98935.88;4717870;30;20056;-88
2022/06/16 05:59:28;;;;;;;0.40;0.40;;;;;;;17.40;59.70;98936.81;4751099;30;20055;-90
2022/06/16 06:01:58;;;;;;;0.32;0.32;;;;;;;17.59;59.50;98936.81;4724382;30;20052;-88
2022/06/16 06:04:27;;;;;;;0.30;0.30;;;;;;;17.76;59.48;98945.34;4737677;30;20062;-88
2022/06/16 06:06:55;;;;;;;0.30;0.30;;;;;;;17.84;58.18;98950.16;4730843;30;20310;-89
2022/06/16 06:17:43;;;;;;;0.40;0.40;;;;;;;17.65;55.94;98944.66;4757920;30;20174;-89
2022/06/16 06:20:12;;;;;;;0.40;0.40;;;;;;;17.79;55.74;98939.28;4750236;30;20060;-88
2022/06/16 06:22:43;;;;;;;0.30;0.30;;;;;;;17.91;54.51;98938.91;4730926;30;20059;-89
2022/06/16 06:25:12;;;;;;;0.30;0.30;;;;;;;17.78;55.73;98940.41;4760983;30;20059;-89
2022/06/16 06:27:42;;;;;;;0.40;0.40;;;;;;;17.90;55.76;98931.78;4744742;30;20090;-85
2022/06/16 06:30:15;;;;;;;0.40;0.40;;;;;;;18.07;53.73;98937.56;4763555;30;20052;-84
2022/06/16 06:32:43;;;;;;;0.40;0.40;;;;;;;18.16;52.57;98935.78;4756814;30;20106;-85
2022/06/16 06:35:11;;;;;;;0.40;0.40;;;;;;;18.40;52.60;98932.94;4735154;30;20091;-90
2022/06/16 06:37:41;;;;;;;0.40;0.40;;;;;;;18.61;51.58;98944.38;4745432;30;20056;-87
2022/06/16 06:40:18;;;;;;;0.30;0.30;;;;;;;18.50;50.96;98953.84;4752148;30;20083;-88
2022/06/16 06:42:45;;;;;;;0.30;0.30;;;;;;;18.28;50.36;98940.81;4751961;30;20093;-88
2022/06/16 06:45:20;;;;;;;0.30;0.30;;;;;;;18.28;50.72;98943.56;4735999;30;20551;-81
2022/06/16 06:47:48;;;;;;;0.30;0.30;;;;;;;18.27;51.54;98941.09;4736691;30;20374;-88
2022/06/16 06:50:43;;;;;;;0.30;0.30;;;;;;;18.31;51.14;98926.56;4751831;30;20052;-88
2022/06/16 06:53:11;;;;;;;0.30;0.30;;;;;;;18.22;51.48;98933.00;4769259;30;20101;-90
2022/06/16 06:55:41;;;;;;;0.40;0.40;;;;;;;18.27;51.61;98941.91;4769518;30;20063;-89
2022/06/16 06:58:13;;;;;;;0.32;0.32;;;;;;;18.36;51.69;98931.13;4769359;30;20074;-91
2022/06/16 07:00:41;;;;;;;0.30;0.30;;;;;;;18.30;51.27;98929.56;4754696;30;20056;-89
2022/06/16 07:03:09;;;;;;;0.30;0.30;;;;;;;18.36;50.58;98925.66;4769644;30;20139;-89
2022/06/16 07:05:37;;;;;;;0.30;0.30;;;;;;;18.16;49.22;98927.59;4754438;30;20136;-90
2022/06/16 07:08:05;;;;;;;0.30;0.30;;;;;;;18.25;49.57;98935.91;4769510;30;20070;-88
2022/06/16 07:10:32;;;;;;;0.30;0.30;;;;;;;18.27;50.43;98936.44;4759878;30;20087;-89
2022/06/16 07:12:59;;;;;;;0.30;0.30;;;;;;;18.19;50.31;98937.13;4780559;29;20575;-90
2022/06/16 07:15:27;;;;;;;0.30;0.30;;;;;;;18.03;49.67;98933.81;4769768;30;20085;-89
2022/06/16 07:17:56;;;;;;;0.30;0.30;;;;;;;18.03;49.70;98931.09;4756261;30;20097;-89
2022/06/16 07:20:26;;;;;;;0.30;0.30;;;;;;;18.08;49.30;98927.44;4726521;30;20048;-90
2022/06/16 07:22:53;;;;;;;0.30;0.30;;;;;;;18.18;49.38;98932.78;4756031;30;20504;-89
2022/06/16 07:25:21;;;;;;;0.50;0.50;;;;;;;18.61;49.19;98925.25;4740341;30;20056;-90
2022/06/16 07:27:48;;;;;;;0.50;0.50;;;;;;;19.31;47.49;98926.19;4757640;30;20086;-88
2022/06/16 07:30:18;;;;;;;0.40;0.40;;;;;;;19.46;47.80;98925.88;4760912;30;20080;-90
2022/06/16 07:32:46;;;;;;;0.30;0.30;;;;;;;19.18;47.17;98910.56;4748917;30;20120;-89
2022/06/16 07:35:16;;;;;;;0.30;0.30;;;;;;;18.91;47.78;98905.88;4739922;30;20091;-90
2022/06/16 07:37:43;;;;;;;0.30;0.30;;;;;;;18.61;47.40;98906.13;4754072;30;20151;-90
2022/06/16 07:40:13;;;;;;;0.30;0.30;;;;;;;18.39;47.82;98917.69;4753400;30;20547;-90
2022/06/16 07:42:41;;;;;;;0.40;0.40;;;;;;;18.67;48.06;98922.44;4752321;30;20539;-90
2022/06/16 07:45:38;;;;;;;0.40;0.40;;;;;;;19.11;46.79;98926.56;4755243;30;20052;-89
2022/06/16 07:48:06;;;;;;;0.40;0.40;;;;;;;19.22;45.89;98900.66;4737999;30;20060;-90
2022/06/16 07:50:36;;;;;;;0.40;0.40;;;;;;;19.27;44.27;98901.38;4752370;30;20440;-90
2022/06/16 07:53:05;;;;;;;0.50;0.50;;;;;;;19.23;43.26;98905.00;4753388;30;20096;-89
2022/06/16 07:55:33;;;;;;;0.50;0.50;;;;;;;19.36;43.38;98904.19;4753326;30;20087;-89
2022/06/16 07:58:00;;;;;;;0.50;0.50;;;;;;;19.55;42.98;98892.31;4781800;30;20052;-90
2022/06/16 08:00:31;;;;;;;0.43;0.43;;;;;;;19.62;44.06;98895.44;4737224;30;20441;-88
2022/06/16 08:02:58;;;;;;;0.50;0.50;;;;;;;19.87;43.02;98910.53;4751665;30;20082;-89
2022/06/16 08:05:26;;;;;;;0.50;0.50;;;;;;;19.93;42.72;98909.31;4750624;30;20075;-90
2022/06/16 08:07:54;;;;;;;0.50;0.50;;;;;;;19.80;42.48;98915.59;4752394;30;20066;-89
2022/06/16 08:10:36;;;;;;;0.50;0.50;;;;;;;19.61;41.01;98897.38;4871388;24;20139;-89
2022/06/16 08:13:04;;;;;;;0.50;0.50;;;;;;;19.75;40.99;98900.13;4713395;30;20077;-89
2022/06/16 08:15:31;;;;;;;0.50;0.50;;;;;;;19.83;38.95;98893.13;4730002;30;20083;-89
2022/06/16 08:17:58;;;;;;;0.50;0.50;;;;;;;19.87;39.51;98902.31;4716613;30;20067;-89
2022/06/16 08:20:25;;;;;;;0.50;0.50;;;;;;;20.14;39.50;98893.19;4729675;30;20144;-88
2022/06/16 08:22:58;;;;;;;0.60;0.60;;;;;;;20.83;39.50;98895.59;4729889;30;20518;-89
2022/06/16 08:25:28;;;;;;;0.50;0.50;;;;;;;21.50;37.85;98886.38;4728885;30;20506;-89
2022/06/16 08:27:56;;;;;;;0.50;0.50;;;;;;;21.97;37.69;98902.25;4716617;30;20413;-89
2022/06/16 08:30:24;;;;;;;0.50;0.50;;;;;;;22.08;36.69;98901.63;4716441;30;20173;-88
2022/06/16 08:32:52;;;;;;;0.40;0.40;;;;;;;21.80;35.96;98884.66;4716330;30;20049;-89
2022/06/16 08:35:20;;;;;;;0.30;0.30;;;;;;;21.09;36.23;98895.75;4717566;30;20052;-88
2022/06/16 08:37:47;;;;;;;0.60;0.60;;;;;;;21.53;36.03;98890.41;4729916;30;20053;-91
2022/06/16 08:40:15;;;;;;;0.60;0.60;;;;;;;22.05;35.56;98893.22;4731275;30;20115;-90
2022/06/16 08:42:52;;;;;;;0.32;0.32;;;;;;;21.44;36.65;98887.63;4731226;30;20605;-89
2022/06/16 08:45:32;;;;;;;0.40;0.40;;;;;;;20.85;38.08;98887.06;4718909;30;20064;-89
2022/06/16 08:48:21;;;;;;;0.30;0.30;;;;;;;20.23;41.31;98901.47;4717933;30;20061;-90
2022/06/16 08:51:32;;;;;;;0.30;0.30;;;;;;;20.00;43.36;98898.72;4731511;30;20095;-87
2022/06/16 08:54:10;;;;;;;0.70;0.70;;;;;;;20.11;43.65;98902.06;4716881;30;20543;-89
2022/06/16 08:56:59;;;;;;;0.40;0.40;;;;;;;20.21;43.73;98899.06;4731216;30;20431;-89
2022/06/16 08:59:30;;;;;;;0.75;0.75;;;;;;;21.58;41.48;98904.81;4731216;30;20090;-89
2022/06/16 09:02:39;;;;;;;0.70;0.70;;;;;;;22.70;39.27;98902.38;4702919;30;20060;-90
2022/06/16 09:05:47;;;;;;;0.30;0.30;;;;;;;21.58;40.69;98907.53;4734747;30;20064;-90
2022/06/16 09:08:25;;;;;;;0.38;0.38;;;;;;;21.46;41.46;98899.13;4732453;30;20057;-90
2022/06/16 09:11:01;;;;;;;0.30;0.30;;;;;;;21.26;41.37;98899.66;4733606;30;20061;-89
2022/06/16 09:13:47;;;;;;;0.40;0.40;;;;;;;20.80;42.33;98907.22;4733322;30;20053;-88
2022/06/16 09:16:47;;;;;;;0.40;0.40;;;;;;;20.77;43.01;98905.91;4749990;30;20056;-91
2022/06/16 09:19:24;;;;;;;0.70;0.70;;;;;;;22.02;40.98;98897.41;4750085;30;20063;-89
2022/06/16 09:22:20;;;;;;;0.70;0.70;;;;;;;23.15;39.10;98889.00;4743581;30;20118;-89
2022/06/16 09:25:18;;;;;;;0.70;0.70;;;;;;;23.74;36.82;98888.19;4740021;30;20056;-87
2022/06/16 09:28:09;;;;;;;0.60;0.60;;;;;;;23.84;36.49;98891.72;4755677;30;20056;-89
2022/06/16 09:30:39;;;;;;;0.70;0.70;;;;;;;24.04;36.58;98892.84;4752208;30;20065;-89
2022/06/16 09:33:15;;;;;;;0.60;0.60;;;;;;;24.81;34.91;98893.25;4739025;30;20517;-90
2022/06/16 09:35:51;;;;;;;0.40;0.40;;;;;;;25.15;33.81;98896.78;4751493;30;20547;-89
2022/06/16 09:38:38;;;;;;;0.30;0.30;;;;;;;23.98;35.32;98890.31;4740313;30;20056;-89
2022/06/16 09:44:26;;;;;;;0.50;0.50;;;;;;;23.89;34.09;98886.00;4716592;30;20075;-89
2022/06/16 09:47:05;;;;;;;0.60;0.60;;;;;;;22.79;35.50;98888.59;4716818;30;20064;-89
2022/06/16 09:49:58;;;;;;;0.60;0.60;;;;;;;23.43;34.34;98890.47;4702444;30;20374;-89
2022/06/16 09:53:02;;;;;;;0.40;0.40;;;;;;;22.92;35.14;98893.13;4720415;30;20068;-89
2022/06/16 09:55:35;;;;;;;0.60;0.60;;;;;;;22.92;36.05;98891.16;4734532;30;20072;-89
2022/06/16 09:58:28;;;;;;;0.60;0.60;;;;;;;24.15;34.75;98892.09;4727903;30;20482;-89
2022/06/16 10:00:56;;;;;;;0.60;0.60;;;;;;;24.50;33.16;98888.25;4716594;30;20144;-90
2022/06/16 10:03:31;;;;;;;0.60;0.60;;;;;;;24.80;33.01;98889.69;4716048;30;20057;-90
2022/06/16 10:06:36;;;;;;;0.70;0.70;;;;;;;25.45;32.70;98867.81;4717012;30;20053;-89
2022/06/16 10:09:19;;;;;;;0.50;0.50;;;;;;;26.27;31.37;98888.03;4703513;30;20120;-90
2022/06/16 10:11:52;;;;;;;0.63;0.63;;;;;;;26.61;30.35;98866.44;4722604;30;20068;-89
2022/06/16 10:14:35;;;;;;;0.60;0.60;;;;;;;25.84;30.93;98873.72;4720433;30;20089;-90
2022/06/16 10:17:10;;;;;;;0.20;0.20;;;;;;;24.09;33.12;98879.66;4734977;30;20084;-89
2022/06/16 10:19:40;;;;;;;0.80;0.80;;;;;;;23.06;34.65;98877.19;4721370;30;20064;-89
2022/06/16 10:22:09;;;;;;;0.65;0.65;;;;;;;24.65;32.34;98877.38;4733481;30;20139;-90
2022/06/16 10:24:41;;;;;;;0.70;0.70;;;;;;;25.25;31.66;98874.25;4730086;30;20095;-91
2022/06/16 10:27:10;;;;;;;0.70;0.70;;;;;;;25.68;30.63;98872.84;4725885;30;20049;-91
2022/06/16 10:29:37;;;;;;;0.70;0.70;;;;;;;26.34;30.81;98866.88;4714298;30;20057;-89
2022/06/16 10:32:15;;;;;;;0.60;0.60;;;;;;;26.97;29.93;98866.22;4730460;30;20095;-86
2022/06/16 10:34:43;;;;;;;0.20;0.20;;;;;;;24.71;32.99;98869.66;4698688;30;20514;-89
2022/06/16 10:37:19;;;;;;;0.20;0.20;;;;;;;22.92;35.08;98866.41;4706844;30;20064;-90
2022/06/16 10:39:55;;;;;;;0.20;0.20;;;;;;;22.03;36.62;98879.81;4709127;30;20566;-91
2022/06/16 10:42:26;;;;;;;0.80;0.80;;;;;;;22.46;36.13;98868.00;4712839;30;20095;-86
2022/06/16 10:45:23;;;;;;;0.38;0.38;;;;;;;23.44;34.00;98859.84;4729646;30;20087;-88
2022/06/16 10:48:18;;;;;;;0.20;0.20;;;;;;;22.84;34.37;98875.50;4710212;30;20064;-88
2022/06/16 10:50:47;;;;;;;;;;;;;;;22.05;35.30;98871.22;4707801;30;20091;-87
2022/06/16 10:53:21;;;;;;;0.90;0.90;;;;;;;22.49;35.53;98872.84;4723603;30;19930;-86
2022/06/16 10:56:02;;;;;;;0.70;0.70;;;;;;;24.03;32.96;98875.53;4707897;30;20121;-88
2022/06/16 10:58:33;;;;;;;0.77;0.77;;;;;;;24.37;32.41;98873.59;4715252;30;20064;-89
2022/06/16 11:01:16;;;;;;;0.80;0.80;;;;;;;25.48;30.64;98867.09;4715769;30;20144;-88
2022/06/16 11:04:06;;;;;;;0.47;0.47;;;;;;;26.77;28.91;98862.53;4711299;30;20136;-90
2022/06/16 11:06:34;;;;;;;0.20;0.20;;;;;;;25.74;29.43;98860.38;4716566;30;20154;-87
2022/06/16 11:09:04;;;;;;;0.20;0.20;;;;;;;24.14;31.60;98862.91;4717464;30;20057;-88
2022/06/16 11:11:39;;;;;;;0.20;0.20;;;;;;;23.17;33.17;98866.66;4729621;30;20407;-89
2022/06/16 11:14:42;;;;;;;0.20;0.20;;;;;;;22.56;33.89;98868.75;4714376;30;20060;-88
2022/06/16 11:17:18;;;;;;;0.20;0.20;;;;;;;22.23;34.39;98861.88;4703161;30;20591;-89
2022/06/16 11:19:49;;;;;;;0.20;0.20;;;;;;;21.92;34.92;98870.25;4715854;30;20116;-88
2022/06/16 11:22:39;;;;;;;0.20;0.20;;;;;;;21.76;35.60;98867.19;4709971;30;20619;-88
2022/06/16 11:25:28;;;;;;;0.90;0.90;;;;;;;23.29;32.97;98861.22;4708020;30;20571;-90
2022/06/16 11:28:01;;;;;;;0.88;0.88;;;;;;;25.36;29.58;98861.59;4708356;30;20061;-91
2022/06/16 11:30:37;;;;;;;0.70;0.70;;;;;;;26.24;28.92;98875.69;4727135;30;20119;-91
2022/06/16 11:33:06;;;;;;;0.70;0.70;;;;;;;27.43;27.38;98882.38;4712309;30;20513;-92
2022/06/16 11:35:46;;;;;;;0.60;0.60;;;;;;;26.98;27.34;98875.31;4697015;30;20053;-89
2022/06/16 11:38:30;;;;;;;0.60;0.60;;;;;;;26.90;27.18;98884.59;4722921;30;20061;-90
2022/06/16 11:41:10;;;;;;;0.50;0.50;;;;;;;27.92;26.17;98881.13;4727057;30;20123;-89
2022/06/16 11:43:56;;;;;;;0.50;0.50;;;;;;;28.17;25.42;98862.22;4709014;30;20060;-90
2022/06/16 11:46:38;;;;;;;0.60;0.60;;;;;;;28.01;25.74;98865.06;4699834;30;20077;-93
2022/06/16 11:49:18;;;;;;;0.60;0.60;;;;;;;27.80;25.71;98873.69;4709832;30;20092;-87
2022/06/16 11:51:57;;;;;;;0.50;0.50;;;;;;;27.68;25.96;98863.53;4719915;30;20057;-85
2022/06/16 11:54:53;;;;;;;0.60;0.60;;;;;;;28.40;25.66;98837.28;4727259;30;20064;-86
2022/06/16 11:57:49;;;;;;;0.60;0.60;;;;;;;28.61;24.59;98873.00;4724939;30;20060;-87
2022/06/16 12:00:20;;;;;;;0.60;0.60;;;;;;;28.02;24.41;98875.00;4713703;30;20080;-86
2022/06/16 12:03:11;;;;;;;0.60;0.60;;;;;;;27.38;25.26;98875.13;4713205;30;20057;-86
2022/06/16 12:06:06;;;;;;;0.60;0.60;;;;;;;27.47;25.36;98871.34;4720736;30;20072;-86
2022/06/16 12:09:05;;;;;;;0.60;0.60;;;;;;;27.82;25.18;98868.63;4730828;30;20509;-87
2022/06/16 12:12:12;;;;;;;0.52;0.52;;;;;;;28.51;24.74;98866.06;4726485;30;20064;-88
2022/06/16 12:15:18;;;;;;;0.50;0.50;;;;;;;28.50;24.00;98859.72;4708234;30;20070;-89
2022/06/16 12:18:05;;;;;;;0.60;0.60;;;;;;;28.75;23.39;98856.59;4721547;30;20124;-88
2022/06/16 12:21:13;;;;;;;0.60;0.60;;;;;;;29.34;22.79;98857.19;4726979;30;20061;-93
2022/06/16 12:24:05;;;;;;;0.60;0.60;;;;;;;29.04;22.99;98860.66;4731268;30;20147;-93
2022/06/16 12:26:33;;;;;;;0.60;0.60;;;;;;;29.41;22.60;98857.31;4753158;30;20086;-91
2022/06/16 12:29:09;;;;;;;0.60;0.60;;;;;;;29.86;21.58;98860.38;4754143;30;20044;-93
2022/06/16 12:31:51;;;;;;;0.60;0.60;;;;;;;29.94;22.05;98856.50;4732998;30;20096;-93
2022/06/16 12:34:31;;;;;;;0.60;0.60;;;;;;;29.60;21.06;98859.19;4715965;30;20507;-92
2022/06/16 12:37:03;;;;;;;0.60;0.60;;;;;;;29.42;21.75;98855.31;4720940;30;20152;-91
2022/06/16 12:39:40;;;;;;;0.60;0.60;;;;;;;29.43;21.45;98862.50;4728150;30;20061;-93